sensor_id;sensor_type;location;lat;lon;timestamp;P1;durP1;ratioP1;P2;durP2;ratioP2
291;SDS011;23311;48.776;9.162;2024-01-15T00:00:44;15.03;;;9.33;;
291;SDS011;23311;48.776;9.162;2024-01-15T00:03:14;18.73;;;11.10;;
291;SDS011;23311;48.776;9.162;2024-01-15T00:05:42;15.43;;;10.90;;
291;SDS011;23311;48.776;9.162;2024-01-15T00:08:11;12.60;;;9.37;;
291;SDS011;23311;48.776;9.162;2024-01-15T00:10:39;15.77;;;9.60;;
291;SDS011;23311;48.776;9.162;2024-01-15T00:13:08;15.60;;;9.33;;
291;SDS011;23311;48.776;9.162;2024-01-15T00:15:36;15.43;;;9.67;;
291;SDS011;23311;48.776;9.162;2024-01-15T00:18:04;14.43;;;9.60;;
291;SDS011;23311;48.776;9.162;2024-01-15T00:20:35;15.00;;;9.20;;
291;SDS011;23311;48.776;9.162;2024-01-15T00:23:04;15.50;;;10.67;;
291;SDS011;23311;48.776;9.162;2024-01-15T00:25:32;16.97;;;11.30;;
291;SDS011;23311;48.776;9.162;2024-01-15T00:28:01;14.57;;;10.03;;
291;SDS011;23311;48.776;9.162;2024-01-15T00:30:29;14.30;;;9.10;;
291;SDS011;23311;48.776;9.162;2024-01-15T00:32:58;15.97;;;9.93;;
291;SDS011;23311;48.776;9.162;2024-01-15T00:35:26;16.60;;;8.97;;
291;SDS011;23311;48.776;9.162;2024-01-15T00:37:56;19.63;;;10.20;;
291;SDS011;23311;48.776;9.162;2024-01-15T00:40:24;14.27;;;9.10;;
291;SDS011;23311;48.776;9.162;2024-01-15T00:42:52;13.83;;;9.47;;
291;SDS011;23311;48.776;9.162;2024-01-15T00:45:21;13.40;;;10.50;;
291;SDS011;23311;48.776;9.162;2024-01-15T00:47:49;16.50;;;9.87;;
291;SDS011;23311;48.776;9.162;2024-01-15T00:50:17;16.03;;;10.00;;
291;SDS011;23311;48.776;9.162;2024-01-15T00:52:45;19.43;;;11.20;;
291;SDS011;23311;48.776;9.162;2024-01-15T00:55:15;16.07;;;9.50;;
291;SDS011;23311;48.776;9.162;2024-01-15T00:57:43;18.13;;;9.53;;
291;SDS011;23311;48.776;9.162;2024-01-15T01:00:12;16.70;;;10.40;;
291;SDS011;23311;48.776;9.162;2024-01-15T01:02:41;17.37;;;10.90;;
291;SDS011;23311;48.776;9.162;2024-01-15T01:05:09;16.77;;;9.63;;
291;SDS011;23311;48.776;9.162;2024-01-15T01:07:38;15.30;;;9.83;;
291;SDS011;23311;48.776;9.162;2024-01-15T01:10:06;15.57;;;10.30;;
291;SDS011;23311;48.776;9.162;2024-01-15T01:12:36;15.97;;;10.37;;
291;SDS011;23311;48.776;9.162;2024-01-15T01:15:05;15.13;;;9.33;;
291;SDS011;23311;48.776;9.162;2024-01-15T01:17:33;14.60;;;9.73;;
291;SDS011;23311;48.776;9.162;2024-01-15T01:20:01;14.70;;;9.97;;
291;SDS011;23311;48.776;9.162;2024-01-15T01:22:31;14.20;;;9.40;;
291;SDS011;23311;48.776;9.162;2024-01-15T01:25:00;14.63;;;9.30;;
291;SDS011;23311;48.776;9.162;2024-01-15T01:27:28;14.20;;;10.60;;
291;SDS011;23311;48.776;9.162;2024-01-15T01:29:58;17.20;;;10.20;;
291;SDS011;23311;48.776;9.162;2024-01-15T01:32:27;14.60;;;9.07;;
291;SDS011;23311;48.776;9.162;2024-01-15T01:34:55;14.70;;;8.60;;
291;SDS011;23311;48.776;9.162;2024-01-15T01:37:23;17.73;;;8.83;;
291;SDS011;23311;48.776;9.162;2024-01-15T01:39:51;16.07;;;9.07;;
291;SDS011;23311;48.776;9.162;2024-01-15T01:42:20;14.43;;;8.27;;
291;SDS011;23311;48.776;9.162;2024-01-15T01:44:48;13.67;;;8.73;;
291;SDS011;23311;48.776;9.162;2024-01-15T01:47:18;14.60;;;8.97;;
291;SDS011;23311;48.776;9.162;2024-01-15T01:49:46;14.30;;;9.63;;
291;SDS011;23311;48.776;9.162;2024-01-15T01:52:15;17.47;;;9.27;;
291;SDS011;23311;48.776;9.162;2024-01-15T01:54:43;14.03;;;9.57;;
291;SDS011;23311;48.776;9.162;2024-01-15T01:57:12;17.50;;;9.23;;
291;SDS011;23311;48.776;9.162;2024-01-15T01:59:41;14.07;;;8.80;;
291;SDS011;23311;48.776;9.162;2024-01-15T02:02:09;16.67;;;9.20;;
291;SDS011;23311;48.776;9.162;2024-01-15T02:04:39;15.43;;;9.37;;
291;SDS011;23311;48.776;9.162;2024-01-15T02:07:13;13.83;;;10.07;;
291;SDS011;23311;48.776;9.162;2024-01-15T02:09:44;14.47;;;8.87;;
291;SDS011;23311;48.776;9.162;2024-01-15T02:12:12;15.57;;;8.10;;
291;SDS011;23311;48.776;9.162;2024-01-15T02:14:41;18.87;;;9.30;;
291;SDS011;23311;48.776;9.162;2024-01-15T02:17:13;14.90;;;9.20;;
291;SDS011;23311;48.776;9.162;2024-01-15T02:19:49;14.57;;;9.40;;
291;SDS011;23311;48.776;9.162;2024-01-15T02:22:19;12.07;;;8.50;;
291;SDS011;23311;48.776;9.162;2024-01-15T02:24:49;14.03;;;8.50;;
291;SDS011;23311;48.776;9.162;2024-01-15T02:27:19;15.30;;;9.63;;
291;SDS011;23311;48.776;9.162;2024-01-15T02:29:48;16.47;;;8.90;;
291;SDS011;23311;48.776;9.162;2024-01-15T02:32:16;16.87;;;9.30;;
291;SDS011;23311;48.776;9.162;2024-01-15T02:34:45;15.40;;;8.80;;
291;SDS011;23311;48.776;9.162;2024-01-15T02:37:13;16.20;;;10.13;;
291;SDS011;23311;48.776;9.162;2024-01-15T02:39:41;14.80;;;8.67;;
291;SDS011;23311;48.776;9.162;2024-01-15T02:42:11;15.87;;;8.83;;
291;SDS011;23311;48.776;9.162;2024-01-15T02:44:39;13.30;;;9.50;;
291;SDS011;23311;48.776;9.162;2024-01-15T02:47:07;14.00;;;8.80;;
291;SDS011;23311;48.776;9.162;2024-01-15T02:49:35;12.20;;;8.17;;
291;SDS011;23311;48.776;9.162;2024-01-15T02:52:03;15.17;;;9.20;;
291;SDS011;23311;48.776;9.162;2024-01-15T02:54:32;13.90;;;9.30;;
291;SDS011;23311;48.776;9.162;2024-01-15T02:57:00;15.60;;;9.67;;
291;SDS011;23311;48.776;9.162;2024-01-15T02:59:29;14.60;;;9.20;;
291;SDS011;23311;48.776;9.162;2024-01-15T03:01:58;12.87;;;8.67;;
291;SDS011;23311;48.776;9.162;2024-01-15T03:04:26;15.87;;;8.87;;
291;SDS011;23311;48.776;9.162;2024-01-15T03:06:54;14.87;;;8.53;;
291;SDS011;23311;48.776;9.162;2024-01-15T03:09:22;13.90;;;8.80;;
291;SDS011;23311;48.776;9.162;2024-01-15T03:11:51;14.23;;;9.60;;
291;SDS011;23311;48.776;9.162;2024-01-15T03:14:19;14.40;;;8.27;;
291;SDS011;23311;48.776;9.162;2024-01-15T03:16:48;15.37;;;8.87;;
291;SDS011;23311;48.776;9.162;2024-01-15T03:19:17;14.20;;;10.10;;
291;SDS011;23311;48.776;9.162;2024-01-15T03:21:45;17.27;;;10.10;;
291;SDS011;23311;48.776;9.162;2024-01-15T03:24:13;14.27;;;8.90;;
291;SDS011;23311;48.776;9.162;2024-01-15T03:26:41;11.33;;;7.97;;
291;SDS011;23311;48.776;9.162;2024-01-15T03:29:10;13.07;;;8.60;;
291;SDS011;23311;48.776;9.162;2024-01-15T03:31:38;17.53;;;9.93;;
291;SDS011;23311;48.776;9.162;2024-01-15T03:34:08;17.87;;;10.37;;
291;SDS011;23311;48.776;9.162;2024-01-15T03:36:36;15.30;;;9.67;;
291;SDS011;23311;48.776;9.162;2024-01-15T03:39:04;14.87;;;8.60;;
291;SDS011;23311;48.776;9.162;2024-01-15T03:41:32;15.27;;;9.67;;
291;SDS011;23311;48.776;9.162;2024-01-15T03:44:00;11.00;;;8.20;;
291;SDS011;23311;48.776;9.162;2024-01-15T03:46:30;17.13;;;10.57;;
291;SDS011;23311;48.776;9.162;2024-01-15T03:48:58;31.33;;;18.27;;
291;SDS011;23311;48.776;9.162;2024-01-15T03:51:27;22.90;;;14.00;;
291;SDS011;23311;48.776;9.162;2024-01-15T03:53:56;18.93;;;10.57;;
291;SDS011;23311;48.776;9.162;2024-01-15T03:56:24;13.30;;;9.20;;
291;SDS011;23311;48.776;9.162;2024-01-15T03:58:52;14.53;;;8.33;;
291;SDS011;23311;48.776;9.162;2024-01-15T04:01:20;11.47;;;7.87;;
291;SDS011;23311;48.776;9.162;2024-01-15T04:03:48;14.67;;;8.50;;
291;SDS011;23311;48.776;9.162;2024-01-15T04:06:17;11.80;;;7.50;;
291;SDS011;23311;48.776;9.162;2024-01-15T04:08:46;12.60;;;7.07;;
291;SDS011;23311;48.776;9.162;2024-01-15T04:11:14;10.43;;;7.07;;
291;SDS011;23311;48.776;9.162;2024-01-15T04:13:42;13.43;;;6.50;;
291;SDS011;23311;48.776;9.162;2024-01-15T04:16:10;11.80;;;7.97;;
291;SDS011;23311;48.776;9.162;2024-01-15T04:18:39;12.37;;;6.40;;
291;SDS011;23311;48.776;9.162;2024-01-15T04:21:07;11.70;;;7.20;;
291;SDS011;23311;48.776;9.162;2024-01-15T04:23:35;9.77;;;6.40;;
291;SDS011;23311;48.776;9.162;2024-01-15T04:26:05;10.30;;;6.67;;
291;SDS011;23311;48.776;9.162;2024-01-15T04:28:33;10.70;;;7.40;;
291;SDS011;23311;48.776;9.162;2024-01-15T04:31:01;14.20;;;7.70;;
291;SDS011;23311;48.776;9.162;2024-01-15T04:33:30;11.10;;;7.47;;
291;SDS011;23311;48.776;9.162;2024-01-15T04:36:01;10.10;;;6.30;;
291;SDS011;23311;48.776;9.162;2024-01-15T04:38:29;11.60;;;7.63;;
291;SDS011;23311;48.776;9.162;2024-01-15T04:40:58;12.00;;;6.93;;
291;SDS011;23311;48.776;9.162;2024-01-15T04:43:28;9.87;;;6.53;;
291;SDS011;23311;48.776;9.162;2024-01-15T04:45:56;11.70;;;7.13;;
291;SDS011;23311;48.776;9.162;2024-01-15T04:48:24;11.90;;;7.60;;
291;SDS011;23311;48.776;9.162;2024-01-15T04:50:52;12.83;;;7.63;;
291;SDS011;23311;48.776;9.162;2024-01-15T04:53:21;12.77;;;8.70;;
291;SDS011;23311;48.776;9.162;2024-01-15T04:55:49;14.13;;;8.57;;
291;SDS011;23311;48.776;9.162;2024-01-15T04:58:17;11.90;;;8.60;;
291;SDS011;23311;48.776;9.162;2024-01-15T05:00:47;11.07;;;7.67;;
291;SDS011;23311;48.776;9.162;2024-01-15T05:03:15;14.23;;;8.43;;
291;SDS011;23311;48.776;9.162;2024-01-15T05:05:44;11.40;;;7.67;;
291;SDS011;23311;48.776;9.162;2024-01-15T05:08:12;14.13;;;8.43;;
291;SDS011;23311;48.776;9.162;2024-01-15T05:10:40;11.50;;;7.87;;
291;SDS011;23311;48.776;9.162;2024-01-15T05:13:08;12.07;;;7.80;;
291;SDS011;23311;48.776;9.162;2024-01-15T05:15:37;11.87;;;7.20;;
291;SDS011;23311;48.776;9.162;2024-01-15T05:18:06;11.97;;;7.97;;
291;SDS011;23311;48.776;9.162;2024-01-15T05:20:36;12.10;;;7.80;;
291;SDS011;23311;48.776;9.162;2024-01-15T05:23:05;11.20;;;6.90;;
291;SDS011;23311;48.776;9.162;2024-01-15T05:25:33;14.80;;;8.50;;
291;SDS011;23311;48.776;9.162;2024-01-15T05:28:01;9.70;;;7.27;;
291;SDS011;23311;48.776;9.162;2024-01-15T05:30:30;13.50;;;7.40;;
291;SDS011;23311;48.776;9.162;2024-01-15T05:32:58;9.47;;;7.03;;
291;SDS011;23311;48.776;9.162;2024-01-15T05:35:29;9.87;;;6.23;;
291;SDS011;23311;48.776;9.162;2024-01-15T05:37:58;13.70;;;6.40;;
291;SDS011;23311;48.776;9.162;2024-01-15T05:40:26;10.20;;;7.47;;
291;SDS011;23311;48.776;9.162;2024-01-15T05:42:54;8.67;;;6.33;;
291;SDS011;23311;48.776;9.162;2024-01-15T05:45:23;13.73;;;7.03;;
291;SDS011;23311;48.776;9.162;2024-01-15T05:47:51;9.27;;;6.43;;
291;SDS011;23311;48.776;9.162;2024-01-15T05:50:19;10.33;;;7.10;;
291;SDS011;23311;48.776;9.162;2024-01-15T05:52:49;10.77;;;6.97;;
291;SDS011;23311;48.776;9.162;2024-01-15T05:55:17;12.17;;;8.20;;
291;SDS011;23311;48.776;9.162;2024-01-15T05:57:45;10.93;;;7.20;;
291;SDS011;23311;48.776;9.162;2024-01-15T06:00:14;14.00;;;8.53;;
291;SDS011;23311;48.776;9.162;2024-01-15T06:02:43;14.00;;;8.70;;
291;SDS011;23311;48.776;9.162;2024-01-15T06:05:11;11.83;;;8.00;;
291;SDS011;23311;48.776;9.162;2024-01-15T06:07:39;12.83;;;8.50;;
291;SDS011;23311;48.776;9.162;2024-01-15T06:10:10;11.30;;;7.13;;
291;SDS011;23311;48.776;9.162;2024-01-15T06:12:38;13.20;;;8.27;;
291;SDS011;23311;48.776;9.162;2024-01-15T06:15:07;10.20;;;6.63;;
291;SDS011;23311;48.776;9.162;2024-01-15T06:17:35;13.27;;;7.20;;
291;SDS011;23311;48.776;9.162;2024-01-15T06:20:04;12.80;;;8.37;;
291;SDS011;23311;48.776;9.162;2024-01-15T06:22:33;10.67;;;7.47;;
291;SDS011;23311;48.776;9.162;2024-01-15T06:25:03;13.07;;;7.73;;
291;SDS011;23311;48.776;9.162;2024-01-15T06:27:33;11.30;;;7.83;;
291;SDS011;23311;48.776;9.162;2024-01-15T06:30:01;9.37;;;6.90;;
291;SDS011;23311;48.776;9.162;2024-01-15T06:32:30;11.57;;;7.60;;
291;SDS011;23311;48.776;9.162;2024-01-15T06:34:58;9.07;;;7.30;;
291;SDS011;23311;48.776;9.162;2024-01-15T06:37:27;12.90;;;7.50;;
291;SDS011;23311;48.776;9.162;2024-01-15T06:39:55;12.30;;;7.80;;
291;SDS011;23311;48.776;9.162;2024-01-15T06:42:24;13.67;;;8.40;;
291;SDS011;23311;48.776;9.162;2024-01-15T06:44:54;10.90;;;8.10;;
291;SDS011;23311;48.776;9.162;2024-01-15T06:47:22;11.03;;;7.50;;
291;SDS011;23311;48.776;9.162;2024-01-15T06:49:50;11.20;;;7.70;;
291;SDS011;23311;48.776;9.162;2024-01-15T06:52:19;15.13;;;7.90;;
291;SDS011;23311;48.776;9.162;2024-01-15T06:54:47;11.03;;;8.03;;
291;SDS011;23311;48.776;9.162;2024-01-15T06:57:15;12.07;;;7.57;;
291;SDS011;23311;48.776;9.162;2024-01-15T06:59:44;11.47;;;6.87;;
291;SDS011;23311;48.776;9.162;2024-01-15T07:02:13;10.10;;;6.80;;
291;SDS011;23311;48.776;9.162;2024-01-15T07:04:41;11.63;;;6.90;;
291;SDS011;23311;48.776;9.162;2024-01-15T07:07:10;11.50;;;7.37;;
291;SDS011;23311;48.776;9.162;2024-01-15T07:09:38;11.10;;;7.57;;
291;SDS011;23311;48.776;9.162;2024-01-15T07:12:06;11.37;;;6.20;;
291;SDS011;23311;48.776;9.162;2024-01-15T07:14:34;11.23;;;7.10;;
291;SDS011;23311;48.776;9.162;2024-01-15T07:17:03;11.43;;;7.57;;
291;SDS011;23311;48.776;9.162;2024-01-15T07:19:32;8.90;;;6.60;;
291;SDS011;23311;48.776;9.162;2024-01-15T07:22:00;8.27;;;6.20;;
291;SDS011;23311;48.776;9.162;2024-01-15T07:24:29;11.17;;;6.97;;
291;SDS011;23311;48.776;9.162;2024-01-15T07:26:57;9.53;;;6.37;;
291;SDS011;23311;48.776;9.162;2024-01-15T07:29:25;8.77;;;5.80;;
291;SDS011;23311;48.776;9.162;2024-01-15T07:31:53;10.23;;;6.40;;
291;SDS011;23311;48.776;9.162;2024-01-15T07:34:22;9.10;;;5.60;;
291;SDS011;23311;48.776;9.162;2024-01-15T07:36:51;11.53;;;6.23;;
291;SDS011;23311;48.776;9.162;2024-01-15T07:39:20;10.23;;;6.80;;
291;SDS011;23311;48.776;9.162;2024-01-15T07:41:49;9.57;;;6.87;;
291;SDS011;23311;48.776;9.162;2024-01-15T07:44:17;13.00;;;6.93;;
291;SDS011;23311;48.776;9.162;2024-01-15T07:46:47;9.83;;;6.43;;
291;SDS011;23311;48.776;9.162;2024-01-15T07:49:15;11.20;;;7.37;;
291;SDS011;23311;48.776;9.162;2024-01-15T07:51:44;12.47;;;7.10;;
291;SDS011;23311;48.776;9.162;2024-01-15T07:54:14;9.33;;;6.30;;
291;SDS011;23311;48.776;9.162;2024-01-15T07:56:55;11.30;;;6.63;;
291;SDS011;23311;48.776;9.162;2024-01-15T07:59:23;8.97;;;6.00;;
291;SDS011;23311;48.776;9.162;2024-01-15T08:01:52;10.23;;;6.50;;
291;SDS011;23311;48.776;9.162;2024-01-15T08:04:20;7.63;;;5.40;;
291;SDS011;23311;48.776;9.162;2024-01-15T08:06:50;10.77;;;6.30;;
291;SDS011;23311;48.776;9.162;2024-01-15T08:09:19;9.73;;;5.40;;
291;SDS011;23311;48.776;9.162;2024-01-15T08:11:48;9.50;;;6.20;;
291;SDS011;23311;48.776;9.162;2024-01-15T08:14:17;8.07;;;6.20;;
291;SDS011;23311;48.776;9.162;2024-01-15T08:16:45;8.47;;;6.00;;
291;SDS011;23311;48.776;9.162;2024-01-15T08:19:13;8.97;;;6.03;;
291;SDS011;23311;48.776;9.162;2024-01-15T08:21:42;9.57;;;6.90;;
291;SDS011;23311;48.776;9.162;2024-01-15T08:24:11;10.87;;;6.03;;
291;SDS011;23311;48.776;9.162;2024-01-15T08:26:40;8.17;;;5.80;;
291;SDS011;23311;48.776;9.162;2024-01-15T08:29:09;10.17;;;6.37;;
291;SDS011;23311;48.776;9.162;2024-01-15T08:31:37;10.93;;;6.67;;
291;SDS011;23311;48.776;9.162;2024-01-15T08:34:05;9.80;;;6.63;;
291;SDS011;23311;48.776;9.162;2024-01-15T08:36:35;8.50;;;6.20;;
291;SDS011;23311;48.776;9.162;2024-01-15T08:39:03;11.40;;;7.73;;
291;SDS011;23311;48.776;9.162;2024-01-15T08:41:31;10.13;;;5.80;;
291;SDS011;23311;48.776;9.162;2024-01-15T08:44:02;17.70;;;6.80;;
291;SDS011;23311;48.776;9.162;2024-01-15T08:46:31;9.00;;;6.80;;
291;SDS011;23311;48.776;9.162;2024-01-15T08:48:59;8.50;;;5.97;;
291;SDS011;23311;48.776;9.162;2024-01-15T08:51:27;10.80;;;6.47;;
291;SDS011;23311;48.776;9.162;2024-01-15T08:53:55;8.67;;;5.60;;
291;SDS011;23311;48.776;9.162;2024-01-15T08:56:24;8.20;;;5.30;;
291;SDS011;23311;48.776;9.162;2024-01-15T08:58:54;7.60;;;5.27;;
291;SDS011;23311;48.776;9.162;2024-01-15T09:01:23;7.90;;;4.83;;
291;SDS011;23311;48.776;9.162;2024-01-15T09:03:52;9.97;;;5.10;;
291;SDS011;23311;48.776;9.162;2024-01-15T09:06:20;7.63;;;4.77;;
291;SDS011;23311;48.776;9.162;2024-01-15T09:08:49;6.50;;;4.20;;
291;SDS011;23311;48.776;9.162;2024-01-15T09:11:17;10.20;;;5.80;;
291;SDS011;23311;48.776;9.162;2024-01-15T09:13:45;7.33;;;4.77;;
291;SDS011;23311;48.776;9.162;2024-01-15T09:16:13;7.60;;;4.60;;
291;SDS011;23311;48.776;9.162;2024-01-15T09:18:43;7.47;;;4.70;;
291;SDS011;23311;48.776;9.162;2024-01-15T09:21:13;6.20;;;4.57;;
291;SDS011;23311;48.776;9.162;2024-01-15T09:23:41;6.33;;;4.70;;
291;SDS011;23311;48.776;9.162;2024-01-15T09:26:09;7.47;;;4.30;;
291;SDS011;23311;48.776;9.162;2024-01-15T09:28:38;6.93;;;4.03;;
291;SDS011;23311;48.776;9.162;2024-01-15T09:31:06;5.30;;;3.83;;
291;SDS011;23311;48.776;9.162;2024-01-15T09:33:34;5.40;;;3.80;;
291;SDS011;23311;48.776;9.162;2024-01-15T09:36:04;5.33;;;3.87;;
291;SDS011;23311;48.776;9.162;2024-01-15T09:38:33;7.43;;;4.10;;
291;SDS011;23311;48.776;9.162;2024-01-15T09:41:03;5.10;;;3.37;;
291;SDS011;23311;48.776;9.162;2024-01-15T09:43:32;7.13;;;3.47;;
291;SDS011;23311;48.776;9.162;2024-01-15T09:46:00;5.97;;;4.23;;
291;SDS011;23311;48.776;9.162;2024-01-15T09:48:29;5.03;;;3.30;;
291;SDS011;23311;48.776;9.162;2024-01-15T09:51:01;13.33;;;4.30;;
291;SDS011;23311;48.776;9.162;2024-01-15T09:53:32;6.03;;;3.30;;
291;SDS011;23311;48.776;9.162;2024-01-15T09:56:01;5.80;;;3.43;;
291;SDS011;23311;48.776;9.162;2024-01-15T09:58:30;7.13;;;4.70;;
291;SDS011;23311;48.776;9.162;2024-01-15T10:00:59;6.70;;;3.60;;
291;SDS011;23311;48.776;9.162;2024-01-15T10:03:34;5.90;;;3.70;;
291;SDS011;23311;48.776;9.162;2024-01-15T10:06:03;5.17;;;3.97;;
291;SDS011;23311;48.776;9.162;2024-01-15T10:08:33;6.13;;;3.97;;
291;SDS011;23311;48.776;9.162;2024-01-15T10:11:03;6.87;;;4.10;;
291;SDS011;23311;48.776;9.162;2024-01-15T10:13:31;6.30;;;3.77;;
291;SDS011;23311;48.776;9.162;2024-01-15T10:16:01;6.70;;;3.97;;
291;SDS011;23311;48.776;9.162;2024-01-15T10:18:30;4.10;;;3.27;;
291;SDS011;23311;48.776;9.162;2024-01-15T10:20:59;5.30;;;3.57;;
291;SDS011;23311;48.776;9.162;2024-01-15T10:23:27;7.87;;;3.73;;
291;SDS011;23311;48.776;9.162;2024-01-15T10:25:57;8.40;;;4.20;;
291;SDS011;23311;48.776;9.162;2024-01-15T10:28:26;7.03;;;4.77;;
291;SDS011;23311;48.776;9.162;2024-01-15T10:30:57;4.67;;;3.63;;
291;SDS011;23311;48.776;9.162;2024-01-15T10:33:27;7.87;;;3.93;;
291;SDS011;23311;48.776;9.162;2024-01-15T10:35:56;6.57;;;4.00;;
291;SDS011;23311;48.776;9.162;2024-01-15T10:38:25;5.33;;;3.73;;
291;SDS011;23311;48.776;9.162;2024-01-15T10:40:53;6.60;;;4.10;;
291;SDS011;23311;48.776;9.162;2024-01-15T10:43:24;7.47;;;4.00;;
291;SDS011;23311;48.776;9.162;2024-01-15T10:45:55;5.20;;;3.90;;
291;SDS011;23311;48.776;9.162;2024-01-15T10:48:23;4.90;;;3.97;;
291;SDS011;23311;48.776;9.162;2024-01-15T10:50:53;7.20;;;3.80;;
291;SDS011;23311;48.776;9.162;2024-01-15T10:53:21;5.53;;;3.43;;
291;SDS011;23311;48.776;9.162;2024-01-15T10:55:51;6.10;;;3.10;;
291;SDS011;23311;48.776;9.162;2024-01-15T10:58:20;4.43;;;3.37;;
291;SDS011;23311;48.776;9.162;2024-01-15T11:00:50;7.50;;;3.60;;
291;SDS011;23311;48.776;9.162;2024-01-15T11:03:19;6.83;;;3.70;;
291;SDS011;23311;48.776;9.162;2024-01-15T11:05:47;6.03;;;4.00;;
291;SDS011;23311;48.776;9.162;2024-01-15T11:08:16;6.30;;;3.57;;
291;SDS011;23311;48.776;9.162;2024-01-15T11:10:46;4.77;;;3.80;;
291;SDS011;23311;48.776;9.162;2024-01-15T11:13:19;7.57;;;4.50;;
291;SDS011;23311;48.776;9.162;2024-01-15T11:15:56;5.90;;;3.97;;
291;SDS011;23311;48.776;9.162;2024-01-15T11:18:28;5.27;;;3.20;;
291;SDS011;23311;48.776;9.162;2024-01-15T11:23:51;6.67;;;3.80;;
291;SDS011;23311;48.776;9.162;2024-01-15T11:26:27;5.03;;;3.77;;
291;SDS011;23311;48.776;9.162;2024-01-15T11:28:56;6.17;;;4.07;;
291;SDS011;23311;48.776;9.162;2024-01-15T11:31:27;7.23;;;4.10;;
291;SDS011;23311;48.776;9.162;2024-01-15T11:33:56;7.20;;;4.40;;
291;SDS011;23311;48.776;9.162;2024-01-15T11:39:41;7.23;;;5.00;;
291;SDS011;23311;48.776;9.162;2024-01-15T11:42:13;5.23;;;4.30;;
291;SDS011;23311;48.776;9.162;2024-01-15T11:44:42;6.13;;;4.40;;
291;SDS011;23311;48.776;9.162;2024-01-15T11:47:12;6.90;;;5.10;;
291;SDS011;23311;48.776;9.162;2024-01-15T11:49:49;8.43;;;5.10;;
291;SDS011;23311;48.776;9.162;2024-01-15T11:52:26;6.87;;;4.40;;
291;SDS011;23311;48.776;9.162;2024-01-15T11:55:00;8.60;;;4.50;;
291;SDS011;23311;48.776;9.162;2024-01-15T11:57:37;8.50;;;4.20;;
291;SDS011;23311;48.776;9.162;2024-01-15T12:00:10;6.13;;;5.00;;
291;SDS011;23311;48.776;9.162;2024-01-15T12:02:41;8.50;;;4.67;;
291;SDS011;23311;48.776;9.162;2024-01-15T12:05:11;7.30;;;5.10;;
291;SDS011;23311;48.776;9.162;2024-01-15T12:07:40;6.50;;;4.23;;
291;SDS011;23311;48.776;9.162;2024-01-15T12:10:08;8.33;;;5.10;;
291;SDS011;23311;48.776;9.162;2024-01-15T12:12:49;5.30;;;4.00;;
291;SDS011;23311;48.776;9.162;2024-01-15T12:15:33;8.27;;;3.93;;
291;SDS011;23311;48.776;9.162;2024-01-15T12:18:03;9.83;;;5.27;;
291;SDS011;23311;48.776;9.162;2024-01-15T12:20:31;7.40;;;4.60;;
291;SDS011;23311;48.776;9.162;2024-01-15T12:23:00;6.53;;;4.70;;
291;SDS011;23311;48.776;9.162;2024-01-15T12:25:33;6.63;;;4.87;;
291;SDS011;23311;48.776;9.162;2024-01-15T12:28:02;6.20;;;3.97;;
291;SDS011;23311;48.776;9.162;2024-01-15T12:30:32;8.60;;;5.97;;
291;SDS011;23311;48.776;9.162;2024-01-15T12:33:04;10.20;;;6.30;;
291;SDS011;23311;48.776;9.162;2024-01-15T12:35:33;8.93;;;5.73;;
291;SDS011;23311;48.776;9.162;2024-01-15T12:38:02;8.33;;;5.10;;
291;SDS011;23311;48.776;9.162;2024-01-15T12:40:31;7.10;;;5.03;;
291;SDS011;23311;48.776;9.162;2024-01-15T12:43:02;8.70;;;5.60;;
291;SDS011;23311;48.776;9.162;2024-01-15T12:45:30;7.10;;;5.23;;
291;SDS011;23311;48.776;9.162;2024-01-15T12:47:59;7.27;;;5.77;;
291;SDS011;23311;48.776;9.162;2024-01-15T12:50:29;9.60;;;5.70;;
291;SDS011;23311;48.776;9.162;2024-01-15T12:52:57;11.77;;;6.20;;
291;SDS011;23311;48.776;9.162;2024-01-15T12:55:26;8.80;;;5.93;;
291;SDS011;23311;48.776;9.162;2024-01-15T12:57:56;7.00;;;5.60;;
291;SDS011;23311;48.776;9.162;2024-01-15T13:00:25;8.40;;;5.90;;
291;SDS011;23311;48.776;9.162;2024-01-15T13:02:53;10.73;;;5.93;;
291;SDS011;23311;48.776;9.162;2024-01-15T13:05:23;9.47;;;5.97;;
291;SDS011;23311;48.776;9.162;2024-01-15T13:07:55;6.97;;;4.87;;
291;SDS011;23311;48.776;9.162;2024-01-15T13:10:23;8.00;;;5.77;;
291;SDS011;23311;48.776;9.162;2024-01-15T13:12:52;7.90;;;5.40;;
291;SDS011;23311;48.776;9.162;2024-01-15T13:15:20;10.97;;;6.03;;
291;SDS011;23311;48.776;9.162;2024-01-15T13:17:48;7.27;;;5.17;;
291;SDS011;23311;48.776;9.162;2024-01-15T13:20:16;6.13;;;4.47;;
291;SDS011;23311;48.776;9.162;2024-01-15T13:22:45;7.97;;;5.27;;
291;SDS011;23311;48.776;9.162;2024-01-15T13:25:14;6.67;;;5.03;;
291;SDS011;23311;48.776;9.162;2024-01-15T13:27:43;9.17;;;6.20;;
291;SDS011;23311;48.776;9.162;2024-01-15T13:30:11;11.80;;;4.60;;
291;SDS011;23311;48.776;9.162;2024-01-15T13:32:40;9.13;;;5.07;;
291;SDS011;23311;48.776;9.162;2024-01-15T13:35:08;8.30;;;4.87;;
291;SDS011;23311;48.776;9.162;2024-01-15T13:37:40;7.20;;;4.97;;
291;SDS011;23311;48.776;9.162;2024-01-15T13:40:09;10.10;;;4.60;;
291;SDS011;23311;48.776;9.162;2024-01-15T13:42:45;6.50;;;4.50;;
291;SDS011;23311;48.776;9.162;2024-01-15T13:45:14;6.97;;;4.80;;
291;SDS011;23311;48.776;9.162;2024-01-15T13:47:43;9.20;;;5.20;;
291;SDS011;23311;48.776;9.162;2024-01-15T13:50:11;6.47;;;4.80;;
291;SDS011;23311;48.776;9.162;2024-01-15T13:52:42;7.83;;;4.90;;
291;SDS011;23311;48.776;9.162;2024-01-15T13:55:10;5.87;;;4.63;;
291;SDS011;23311;48.776;9.162;2024-01-15T13:57:38;7.80;;;5.07;;
291;SDS011;23311;48.776;9.162;2024-01-15T14:00:09;7.20;;;5.40;;
291;SDS011;23311;48.776;9.162;2024-01-15T14:02:39;5.00;;;3.80;;
291;SDS011;23311;48.776;9.162;2024-01-15T14:05:08;6.17;;;3.53;;
291;SDS011;23311;48.776;9.162;2024-01-15T14:07:39;7.27;;;4.73;;
291;SDS011;23311;48.776;9.162;2024-01-15T14:10:08;6.93;;;4.70;;
291;SDS011;23311;48.776;9.162;2024-01-15T14:12:37;9.97;;;4.83;;
291;SDS011;23311;48.776;9.162;2024-01-15T14:15:06;6.23;;;4.63;;
291;SDS011;23311;48.776;9.162;2024-01-15T14:17:37;5.13;;;3.90;;
291;SDS011;23311;48.776;9.162;2024-01-15T14:20:06;4.97;;;4.30;;
291;SDS011;23311;48.776;9.162;2024-01-15T14:22:36;8.63;;;4.30;;
291;SDS011;23311;48.776;9.162;2024-01-15T14:25:05;5.53;;;4.30;;
291;SDS011;23311;48.776;9.162;2024-01-15T14:27:33;5.13;;;3.37;;
291;SDS011;23311;48.776;9.162;2024-01-15T14:30:03;5.60;;;4.20;;
291;SDS011;23311;48.776;9.162;2024-01-15T14:32:36;4.70;;;3.90;;
291;SDS011;23311;48.776;9.162;2024-01-15T14:35:04;4.20;;;3.20;;
291;SDS011;23311;48.776;9.162;2024-01-15T14:37:34;4.70;;;3.47;;
291;SDS011;23311;48.776;9.162;2024-01-15T14:40:03;5.70;;;3.80;;
291;SDS011;23311;48.776;9.162;2024-01-15T14:42:33;6.40;;;4.37;;
291;SDS011;23311;48.776;9.162;2024-01-15T14:45:03;5.27;;;4.00;;
291;SDS011;23311;48.776;9.162;2024-01-15T14:47:40;4.00;;;3.27;;
291;SDS011;23311;48.776;9.162;2024-01-15T14:50:11;5.37;;;4.70;;
291;SDS011;23311;48.776;9.162;2024-01-15T14:52:39;5.00;;;4.70;;
291;SDS011;23311;48.776;9.162;2024-01-15T14:55:08;6.87;;;4.57;;
291;SDS011;23311;48.776;9.162;2024-01-15T14:57:37;6.47;;;5.00;;
291;SDS011;23311;48.776;9.162;2024-01-15T15:00:06;6.93;;;5.80;;
291;SDS011;23311;48.776;9.162;2024-01-15T15:02:37;7.10;;;5.10;;
291;SDS011;23311;48.776;9.162;2024-01-15T15:05:10;8.50;;;6.30;;
291;SDS011;23311;48.776;9.162;2024-01-15T15:07:40;8.50;;;5.30;;
291;SDS011;23311;48.776;9.162;2024-01-15T15:10:08;7.53;;;6.00;;
291;SDS011;23311;48.776;9.162;2024-01-15T15:12:37;8.23;;;5.90;;
291;SDS011;23311;48.776;9.162;2024-01-15T15:15:06;7.07;;;5.40;;
291;SDS011;23311;48.776;9.162;2024-01-15T15:17:43;7.43;;;6.47;;
291;SDS011;23311;48.776;9.162;2024-01-15T15:20:13;9.10;;;6.10;;
291;SDS011;23311;48.776;9.162;2024-01-15T15:22:42;8.07;;;6.40;;
291;SDS011;23311;48.776;9.162;2024-01-15T15:25:10;7.17;;;5.93;;